Time;durP1;ratioP1;P1;durP2;ratioP2;P2;SDS_P1;SDS_P2;PMS_P1;PMS_P2;Temp;Humidity;BMP_temperature;BMP_pressure;BME280_temperature;BME280_humidity;BME280_pressure;Samples;Min_cycle;Max_cycle;Signal;HPM_P1;HPM_P2
2023/10/18 00:00:28;;;;;;;5.37;1.37;;;;;;;;;;5028564;28;20181;-69
2023/10/18 00:02:55;;;;;;;3.70;0.60;;;;;;;;;;5034036;28;20193;-69
2023/10/18 00:05:25;;;;;;;5.17;0.70;;;;;;;;;;5034828;28;20634;-70
2023/10/18 00:07:52;;;;;;;2.97;0.90;;;;;;;;;;5034588;28;20189;-69
2023/10/18 00:10:20;;;;;;;2.57;0.70;;;;;;;;;;5019444;28;20640;-72
2023/10/18 00:12:48;;;;;;;1.70;0.70;;;;;;;;;;5014899;28;20271;-71
2023/10/18 00:15:15;;;;;;;1.50;0.73;;;;;;;;;;5015108;28;20181;-70
2023/10/18 00:17:42;;;;;;;1.47;0.73;;;;;;;;;;5002098;28;20194;-69
2023/10/18 00:20:16;;;;;;;3.03;0.80;;;;;;;;;;5009240;28;20206;-72
2023/10/18 00:22:44;;;;;;;2.93;1.07;;;;;;;;;;5013729;28;20196;-73
2023/10/18 00:25:11;;;;;;;4.73;1.27;;;;;;;;;;5015132;28;20200;-72
2023/10/18 00:27:41;;;;;;;1.97;0.90;;;;;;;;;;4993659;28;20179;-73
2023/10/18 00:30:12;;;;;;;2.33;1.07;;;;;;;;;;5026582;28;20196;-72
2023/10/18 00:32:41;;;;;;;2.70;0.70;;;;;;;;;;5017096;28;20245;-73
2023/10/18 00:35:31;;;;;;;2.97;0.67;;;;;;;;;;5024336;28;20182;-72
2023/10/18 00:37:58;;;;;;;2.50;0.80;;;;;;;;;;5021271;28;20665;-70
2023/10/18 00:43:27;;;;;;;2.50;0.77;;;;;;;;;;5031028;28;20269;-71
2023/10/18 00:45:55;;;;;;;2.13;0.70;;;;;;;;;;5032658;28;20200;-70
2023/10/18 00:48:24;;;;;;;2.57;0.60;;;;;;;;;;5032574;28;20817;-70
2023/10/18 00:50:59;;;;;;;1.93;0.80;;;;;;;;;;5032941;28;20192;-69
2023/10/18 00:53:30;;;;;;;3.27;0.73;;;;;;;;;;5025014;28;20573;-69
2023/10/18 00:56:04;;;;;;;2.07;0.63;;;;;;;;;;5012837;28;20181;-69
2023/10/18 00:58:32;;;;;;;3.83;0.60;;;;;;;;;;5013254;28;20177;-69
2023/10/18 01:01:10;;;;;;;0.53;0.40;;;;;;;;;;5013120;28;20636;-69
2023/10/18 01:03:50;;;;;;;4.90;0.80;;;;;;;;;;5012565;28;20188;-69
2023/10/18 01:06:24;;;;;;;4.03;1.00;;;;;;;;;;5013042;28;20185;-70
2023/10/18 01:08:51;;;;;;;2.93;0.73;;;;;;;;;;5012913;28;20337;-70
2023/10/18 01:11:23;;;;;;;4.73;0.90;;;;;;;;;;5013808;28;20173;-70
2023/10/18 01:13:50;;;;;;;5.13;0.90;;;;;;;;;;5013911;28;20218;-72
2023/10/18 01:16:24;;;;;;;4.73;1.00;;;;;;;;;;5014072;28;20177;-70
2023/10/18 01:18:52;;;;;;;3.70;0.70;;;;;;;;;;5013109;28;20758;-70
2023/10/18 01:21:19;;;;;;;8.10;0.87;;;;;;;;;;5014119;28;20682;-69
2023/10/18 01:23:54;;;;;;;2.97;0.90;;;;;;;;;;5013877;28;20205;-69
2023/10/18 01:26:38;;;;;;;3.13;1.00;;;;;;;;;;5019076;28;20254;-68
2023/10/18 01:29:08;;;;;;;1.43;0.53;;;;;;;;;;5030382;28;20181;-69
2023/10/18 01:31:36;;;;;;;3.63;0.80;;;;;;;;;;5033366;28;20704;-70
2023/10/18 01:34:03;;;;;;;4.27;0.90;;;;;;;;;;5033541;28;20296;-70
2023/10/18 01:36:31;;;;;;;2.97;1.00;;;;;;;;;;5033158;28;20193;-69
2023/10/18 01:38:59;;;;;;;2.03;0.63;;;;;;;;;;5033541;28;20252;-69
2023/10/18 01:41:27;;;;;;;3.93;0.70;;;;;;;;;;5033035;28;20355;-70
2023/10/18 01:43:56;;;;;;;3.03;0.70;;;;;;;;;;5033429;28;20199;-69
2023/10/18 01:46:23;;;;;;;3.73;0.73;;;;;;;;;;5033131;28;20270;-69
2023/10/18 01:48:51;;;;;;;2.03;0.73;;;;;;;;;;5033299;28;20251;-70
2023/10/18 01:51:19;;;;;;;5.80;1.07;;;;;;;;;;5033049;28;20189;-69
2023/10/18 01:53:46;;;;;;;2.83;0.50;;;;;;;;;;5033316;28;20213;-69
2023/10/18 01:56:32;;;;;;;2.73;0.63;;;;;;;;;;5033096;28;20180;-69
2023/10/18 01:59:03;;;;;;;3.33;1.17;;;;;;;;;;5032718;28;20567;-69
2023/10/18 02:07:38;;;;;;;3.10;0.90;;;;;;;;;;5032486;28;20207;-70
2023/10/18 02:10:06;;;;;;;4.53;0.67;;;;;;;;;;5033021;28;20652;-70
2023/10/18 02:12:36;;;;;;;3.77;0.60;;;;;;;;;;5025669;28;20236;-70
2023/10/18 02:18:07;;;;;;;1.67;0.60;;;;;;;;;;5018531;28;20218;-70
2023/10/18 02:20:38;;;;;;;2.30;0.70;;;;;;;;;;5003930;28;20181;-66
2023/10/18 02:23:12;;;;;;;1.83;0.50;;;;;;;;;;5022645;28;20272;-68
2023/10/18 02:25:43;;;;;;;1.93;0.67;;;;;;;;;;5030679;28;20211;-68
2023/10/18 02:28:23;;;;;;;3.30;0.50;;;;;;;;;;5031320;28;20550;-68
2023/10/18 02:33:38;;;;;;;7.90;1.47;;;;;;;;;;5011651;28;20710;-68
2023/10/18 02:36:06;;;;;;;2.00;0.83;;;;;;;;;;5011352;28;20207;-67
2023/10/18 02:38:34;;;;;;;1.60;0.60;;;;;;;;;;5028516;28;20193;-66
2023/10/18 02:41:15;;;;;;;2.50;0.60;;;;;;;;;;5031241;28;20717;-67
2023/10/18 02:43:52;;;;;;;7.97;0.93;;;;;;;;;;5030224;28;20325;-67
2023/10/18 02:46:26;;;;;;;4.87;0.70;;;;;;;;;;5014338;28;20268;-67
2023/10/18 02:48:53;;;;;;;1.93;0.70;;;;;;;;;;5011737;28;20221;-67
2023/10/18 02:51:28;;;;;;;5.33;1.03;;;;;;;;;;5011386;28;20239;-67
2023/10/18 02:54:32;;;;;;;1.43;0.73;;;;;;;;;;5011693;28;20220;-68
2023/10/18 02:56:53;;;;;;;4.40;0.80;;;;;;;;;;5009340;28;20212;-67
2023/10/18 02:59:27;;;;;;;1.93;1.03;;;;;;;;;;5009976;28;20186;-67
2023/10/18 03:01:56;;;;;;;2.27;0.60;;;;;;;;;;5011196;28;20550;-67
2023/10/18 03:04:26;;;;;;;2.07;0.77;;;;;;;;;;5011486;28;20192;-68
2023/10/18 03:06:54;;;;;;;3.53;0.70;;;;;;;;;;5012088;28;20196;-69
2023/10/18 03:09:38;;;;;;;2.80;0.77;;;;;;;;;;5013914;28;20263;-67
2023/10/18 03:12:14;;;;;;;6.23;1.10;;;;;;;;;;5015936;28;20271;-67
2023/10/18 03:17:26;;;;;;;8.20;0.80;;;;;;;;;;5035356;28;20185;-66
2023/10/18 03:19:57;;;;;;;6.17;0.90;;;;;;;;;;5029139;28;20192;-67
2023/10/18 03:22:39;;;;;;;2.67;0.90;;;;;;;;;;5015951;28;20178;-67
2023/10/18 03:25:16;;;;;;;3.23;0.90;;;;;;;;;;5015959;28;20193;-67
2023/10/18 03:27:50;;;;;;;5.67;1.00;;;;;;;;;;5016774;28;20190;-66
2023/10/18 03:30:18;;;;;;;5.10;0.83;;;;;;;;;;5015883;28;20627;-66
2023/10/18 03:32:54;;;;;;;3.60;1.07;;;;;;;;;;5021184;28;20265;-66
2023/10/18 03:35:21;;;;;;;3.90;0.80;;;;;;;;;;5034188;28;20172;-67
2023/10/18 03:37:48;;;;;;;2.03;0.80;;;;;;;;;;5033242;28;20193;-67
2023/10/18 03:40:26;;;;;;;1.90;0.60;;;;;;;;;;5035924;28;20177;-67
2023/10/18 03:42:54;;;;;;;4.03;0.87;;;;;;;;;;5034518;28;20278;-67
2023/10/18 03:45:22;;;;;;;5.40;1.00;;;;;;;;;;5035565;28;20184;-66
2023/10/18 03:47:59;;;;;;;2.83;0.87;;;;;;;;;;5035213;28;20184;-68
2023/10/18 03:50:40;;;;;;;2.23;0.73;;;;;;;;;;5019031;28;20189;-67
2023/10/18 03:53:07;;;;;;;3.70;1.10;;;;;;;;;;5029532;28;20228;-66
2023/10/18 03:55:37;;;;;;;4.77;1.27;;;;;;;;;;5035068;28;20631;-67
2023/10/18 03:58:05;;;;;;;5.37;1.10;;;;;;;;;;5034061;28;20184;-66
2023/10/18 04:00:39;;;;;;;5.30;1.13;;;;;;;;;;5021702;28;20280;-67
2023/10/18 04:03:20;;;;;;;9.23;1.50;;;;;;;;;;5014713;28;20189;-68
2023/10/18 04:05:49;;;;;;;2.03;0.70;;;;;;;;;;4995811;28;20196;-68
2023/10/18 04:08:21;;;;;;;4.40;1.23;;;;;;;;;;4996333;28;20186;-67
2023/10/18 04:11:02;;;;;;;3.70;0.83;;;;;;;;;;5034161;28;20195;-69
2023/10/18 04:13:31;;;;;;;6.77;1.10;;;;;;;;;;5034798;28;20224;-67
2023/10/18 04:16:09;;;;;;;2.23;0.80;;;;;;;;;;5034495;28;20233;-67
2023/10/18 04:18:37;;;;;;;4.80;0.90;;;;;;;;;;5027234;28;20202;-67
2023/10/18 04:21:52;;;;;;;2.67;0.97;;;;;;;;;;4995446;28;20189;-67
2023/10/18 04:23:58;;;;;;;2.93;1.40;;;;;;;;;;5030213;28;20689;-69
2023/10/18 04:26:26;;;;;;;6.30;1.13;;;;;;;;;;5033547;28;20542;-69
2023/10/18 04:29:10;;;;;;;4.10;0.70;;;;;;;;;;5016370;28;21029;-68
2023/10/18 04:31:37;;;;;;;2.27;0.60;;;;;;;;;;5033415;28;20244;-69
2023/10/18 04:34:05;;;;;;;2.77;1.20;;;;;;;;;;5033207;28;20263;-68
2023/10/18 04:36:33;;;;;;;4.57;0.80;;;;;;;;;;5032240;28;20557;-68
2023/10/18 04:39:08;;;;;;;2.30;0.97;;;;;;;;;;5026444;28;20216;-69
2023/10/18 04:41:36;;;;;;;6.73;1.30;;;;;;;;;;5015994;28;20237;-68
2023/10/18 04:44:07;;;;;;;3.57;0.93;;;;;;;;;;5031029;28;20628;-68
2023/10/18 04:46:38;;;;;;;4.47;1.13;;;;;;;;;;5031665;28;20593;-68
2023/10/18 04:54:59;;;;;;;1.17;0.70;;;;;;;;;;5032839;28;20228;-69
2023/10/18 04:56:56;;;;;;;5.43;0.97;;;;;;;;;;5025524;28;20638;-69
2023/10/18 04:59:34;;;;;;;6.53;1.20;;;;;;;;;;5032707;28;20176;-69
2023/10/18 05:02:01;;;;;;;5.10;1.03;;;;;;;;;;5016969;28;20267;-68
2023/10/18 05:04:31;;;;;;;4.17;0.93;;;;;;;;;;5013204;28;20670;-68
2023/10/18 05:07:01;;;;;;;2.93;0.83;;;;;;;;;;5012472;28;20596;-69
2023/10/18 05:09:41;;;;;;;4.10;0.90;;;;;;;;;;5011489;28;20190;-69
2023/10/18 05:17:50;;;;;;;3.50;1.00;;;;;;;;;;5012861;28;20192;-68
2023/10/18 05:22:47;;;;;;;4.13;1.20;;;;;;;;;;5027676;28;20189;-67
2023/10/18 05:28:02;;;;;;;11.87;1.30;;;;;;;;;;5018121;28;20631;-67
2023/10/18 05:33:16;;;;;;;9.20;1.30;;;;;;;;;;5030859;28;20249;-69
2023/10/18 05:35:43;;;;;;;3.67;0.83;;;;;;;;;;5030402;28;20666;-67
2023/10/18 05:43:20;;;;;;;3.43;1.00;;;;;;;;;;5013138;28;20561;-67
2023/10/18 05:45:50;;;;;;;4.27;1.10;;;;;;;;;;5013261;28;20184;-67
2023/10/18 05:48:17;;;;;;;3.67;0.93;;;;;;;;;;5013663;28;20185;-69
2023/10/18 05:51:03;;;;;;;4.37;0.90;;;;;;;;;;5021945;28;20596;-68
2023/10/18 05:53:31;;;;;;;5.97;0.90;;;;;;;;;;5027627;28;20220;-70
2023/10/18 05:55:58;;;;;;;7.37;1.03;;;;;;;;;;5033091;28;20188;-70
2023/10/18 05:58:29;;;;;;;5.87;1.00;;;;;;;;;;5033403;28;20177;-70
2023/10/18 06:00:57;;;;;;;3.73;1.03;;;;;;;;;;5032979;28;20181;-70
2023/10/18 06:03:38;;;;;;;4.33;0.93;;;;;;;;;;5031744;28;20185;-70
2023/10/18 06:06:07;;;;;;;5.53;1.10;;;;;;;;;;5033124;28;20181;-70
2023/10/18 06:08:34;;;;;;;3.97;1.13;;;;;;;;;;5033184;28;20189;-70
2023/10/18 06:11:14;;;;;;;1.37;0.80;;;;;;;;;;5032923;28;20181;-70
2023/10/18 06:13:42;;;;;;;6.47;1.27;;;;;;;;;;5031600;28;20614;-70
2023/10/18 06:16:18;;;;;;;2.87;0.97;;;;;;;;;;5031795;28;20271;-70
2023/10/18 06:18:48;;;;;;;6.87;1.00;;;;;;;;;;5032946;28;20184;-71
2023/10/18 06:21:19;;;;;;;2.77;0.90;;;;;;;;;;5031427;28;20192;-70
2023/10/18 06:23:56;;;;;;;3.00;1.00;;;;;;;;;;5032967;28;20181;-70
2023/10/18 06:26:34;;;;;;;6.00;0.70;;;;;;;;;;5033054;28;20184;-71
2023/10/18 06:29:22;;;;;;;3.33;1.20;;;;;;;;;;5031600;28;20653;-70
2023/10/18 06:31:49;;;;;;;5.43;0.87;;;;;;;;;;5032956;28;20256;-70
2023/10/18 06:34:22;;;;;;;2.90;0.90;;;;;;;;;;5032638;28;20373;-71
2023/10/18 06:36:52;;;;;;;2.97;0.90;;;;;;;;;;5033069;28;20182;-70
2023/10/18 06:39:34;;;;;;;7.13;1.00;;;;;;;;;;5033242;28;20179;-70
2023/10/18 06:42:06;;;;;;;4.50;1.03;;;;;;;;;;5031826;28;20312;-71
2023/10/18 06:44:33;;;;;;;3.53;1.00;;;;;;;;;;5035301;28;20308;-70
2023/10/18 06:47:06;;;;;;;3.27;1.13;;;;;;;;;;5036583;28;20175;-71
2023/10/18 06:49:33;;;;;;;4.77;0.80;;;;;;;;;;5036262;28;20185;-70
2023/10/18 06:52:04;;;;;;;3.77;0.90;;;;;;;;;;5036439;28;20173;-71
2023/10/18 06:54:31;;;;;;;4.80;0.93;;;;;;;;;;5036455;28;20275;-70
2023/10/18 06:57:15;;;;;;;6.00;1.00;;;;;;;;;;5036251;28;20173;-70
2023/10/18 06:59:44;;;;;;;3.70;0.90;;;;;;;;;;5036401;28;20185;-70
2023/10/18 07:02:12;;;;;;;3.53;0.80;;;;;;;;;;5036096;28;20181;-71
2023/10/18 07:04:46;;;;;;;4.57;0.93;;;;;;;;;;5036097;28;20181;-72
2023/10/18 07:07:19;;;;;;;6.70;1.00;;;;;;;;;;5034877;28;20767;-70
2023/10/18 07:09:52;;;;;;;3.90;0.87;;;;;;;;;;5036027;28;20191;-71
2023/10/18 07:12:26;;;;;;;5.27;0.90;;;;;;;;;;5036202;28;20228;-72
2023/10/18 07:14:54;;;;;;;5.83;1.10;;;;;;;;;;5036189;28;20233;-71
2023/10/18 07:17:24;;;;;;;1.63;0.80;;;;;;;;;;5034647;28;20184;-70
2023/10/18 07:19:57;;;;;;;2.40;0.70;;;;;;;;;;5035930;28;20219;-71
2023/10/18 07:22:43;;;;;;;7.30;1.40;;;;;;;;;;5036026;28;20242;-71
2023/10/18 07:25:21;;;;;;;3.90;1.00;;;;;;;;;;5035822;28;20712;-70
2023/10/18 07:27:49;;;;;;;4.90;1.10;;;;;;;;;;5035845;28;20245;-71
2023/10/18 07:33:32;;;;;;;4.10;1.00;;;;;;;;;;5035776;28;20347;-69
2023/10/18 07:36:00;;;;;;;5.03;1.00;;;;;;;;;;5035643;28;20174;-70
2023/10/18 07:38:27;;;;;;;3.77;0.70;;;;;;;;;;5035476;28;20248;-70
2023/10/18 07:40:59;;;;;;;7.67;1.10;;;;;;;;;;5035370;28;20183;-70
2023/10/18 07:43:27;;;;;;;2.83;0.83;;;;;;;;;;5035723;28;20260;-70
2023/10/18 07:45:55;;;;;;;4.73;0.90;;;;;;;;;;5035422;28;20304;-70
2023/10/18 07:48:23;;;;;;;2.97;0.83;;;;;;;;;;5035449;28;20197;-70
2023/10/18 07:50:50;;;;;;;3.60;0.93;;;;;;;;;;5035387;28;20177;-69
2023/10/18 07:53:21;;;;;;;3.03;0.70;;;;;;;;;;5035110;28;20220;-70
2023/10/18 07:55:53;;;;;;;3.87;0.80;;;;;;;;;;5034469;28;20252;-70
2023/10/18 07:58:24;;;;;;;1.83;1.00;;;;;;;;;;5035457;28;20178;-70
2023/10/18 08:03:31;;;;;;;2.30;0.80;;;;;;;;;;5035055;28;20190;-70
2023/10/18 08:09:05;;;;;;;5.43;1.03;;;;;;;;;;5034536;28;20185;-70
2023/10/18 08:14:37;;;;;;;2.23;0.90;;;;;;;;;;5034458;28;20685;-71
2023/10/18 08:17:22;;;;;;;4.50;0.90;;;;;;;;;;5035278;28;20177;-71
2023/10/18 08:19:56;;;;;;;4.70;1.00;;;;;;;;;;5034935;28;20268;-72
2023/10/18 08:22:23;;;;;;;6.23;1.20;;;;;;;;;;5034980;28;20207;-71
2023/10/18 08:24:50;;;;;;;3.10;1.00;;;;;;;;;;5035151;28;20552;-71
2023/10/18 08:27:18;;;;;;;6.17;1.00;;;;;;;;;;5034708;28;20228;-70
2023/10/18 08:29:56;;;;;;;6.03;1.10;;;;;;;;;;5033831;28;20177;-70
2023/10/18 08:32:29;;;;;;;6.00;1.00;;;;;;;;;;5034664;28;20279;-73
2023/10/18 08:35:06;;;;;;;4.90;1.07;;;;;;;;;;5034769;28;20631;-71
2023/10/18 08:37:33;;;;;;;6.97;1.27;;;;;;;;;;5034740;28;20185;-71
2023/10/18 08:43:12;;;;;;;2.53;0.90;;;;;;;;;;5033551;28;20247;-71
2023/10/18 08:45:46;;;;;;;5.63;1.30;;;;;;;;;;5034798;28;20180;-71
2023/10/18 08:48:28;;;;;;;4.80;1.23;;;;;;;;;;5034710;28;20188;-72
2023/10/18 08:50:59;;;;;;;4.53;0.93;;;;;;;;;;5034497;28;20173;-72
2023/10/18 08:53:31;;;;;;;5.37;1.43;;;;;;;;;;5034453;28;20307;-71
2023/10/18 08:55:58;;;;;;;3.50;1.40;;;;;;;;;;5034155;28;20235;-71
2023/10/18 08:58:29;;;;;;;3.57;1.23;;;;;;;;;;5034340;28;20193;-71
2023/10/18 09:03:31;;;;;;;6.87;1.33;;;;;;;;;;5034076;28;20177;-71
2023/10/18 09:06:05;;;;;;;4.30;1.30;;;;;;;;;;5033948;28;20631;-70
2023/10/18 09:08:38;;;;;;;5.30;1.30;;;;;;;;;;5034113;28;20602;-71
2023/10/18 09:11:09;;;;;;;4.63;1.40;;;;;;;;;;5032525;28;20634;-70
2023/10/18 09:13:41;;;;;;;4.00;1.30;;;;;;;;;;5033777;28;20252;-71
2023/10/18 09:16:12;;;;;;;2.67;0.90;;;;;;;;;;5033951;28;20177;-72
2023/10/18 09:18:39;;;;;;;3.90;1.70;;;;;;;;;;5033991;28;20242;-72
2023/10/18 09:23:37;;;;;;;7.47;1.67;;;;;;;;;;5033802;28;20651;-70
2023/10/18 09:26:18;;;;;;;6.60;1.80;;;;;;;;;;5033617;28;20184;-72
2023/10/18 09:28:46;;;;;;;2.77;1.20;;;;;;;;;;5034040;28;20649;-70
2023/10/18 09:31:20;;;;;;;4.10;1.10;;;;;;;;;;5033349;28;20177;-70
2023/10/18 09:33:56;;;;;;;6.87;1.40;;;;;;;;;;5033774;28;20221;-70
2023/10/18 09:36:27;;;;;;;6.33;1.70;;;;;;;;;;5032222;28;20555;-70
2023/10/18 09:38:56;;;;;;;6.03;1.20;;;;;;;;;;5033627;28;20196;-70
2023/10/18 09:41:30;;;;;;;6.10;1.50;;;;;;;;;;5033558;28;20192;-70
2023/10/18 09:47:01;;;;;;;8.03;1.60;;;;;;;;;;5032519;28;20238;-70
2023/10/18 09:49:31;;;;;;;6.30;1.73;;;;;;;;;;5033472;28;20188;-70
2023/10/18 09:52:00;;;;;;;7.80;1.70;;;;;;;;;;5033221;28;20169;-71
2023/10/18 09:54:27;;;;;;;2.97;1.27;;;;;;;;;;5033544;28;20249;-71
2023/10/18 09:56:54;;;;;;;5.53;1.53;;;;;;;;;;5033402;28;20666;-71
2023/10/18 09:59:31;;;;;;;6.47;1.30;;;;;;;;;;5033392;28;20637;-71
2023/10/18 10:02:07;;;;;;;6.73;1.80;;;;;;;;;;5033070;28;20184;-71
2023/10/18 10:04:36;;;;;;;4.47;1.50;;;;;;;;;;5033017;28;20661;-70
2023/10/18 10:09:49;;;;;;;4.40;2.07;;;;;;;;;;5033469;28;20208;-70
2023/10/18 10:12:27;;;;;;;5.63;2.13;;;;;;;;;;5032789;28;20173;-70
2023/10/18 10:14:54;;;;;;;7.47;2.23;;;;;;;;;;5032889;28;20230;-70
2023/10/18 10:17:28;;;;;;;6.50;1.80;;;;;;;;;;5031741;28;20181;-72
2023/10/18 10:19:58;;;;;;;6.23;1.77;;;;;;;;;;5035722;28;20304;-71
2023/10/18 10:22:26;;;;;;;5.27;1.83;;;;;;;;;;5036949;28;20177;-71
2023/10/18 10:25:03;;;;;;;4.47;1.70;;;;;;;;;;5036838;28;20177;-71
2023/10/18 10:32:59;;;;;;;6.00;1.80;;;;;;;;;;5027680;28;20682;-71
2023/10/18 10:35:32;;;;;;;2.27;1.27;;;;;;;;;;5036883;28;20198;-70
2023/10/18 10:38:13;;;;;;;6.97;2.10;;;;;;;;;;5036673;28;20191;-70
2023/10/18 10:40:48;;;;;;;5.60;1.60;;;;;;;;;;5036995;28;20205;-70
2023/10/18 10:43:18;;;;;;;5.47;1.90;;;;;;;;;;5036381;28;20232;-71
2023/10/18 10:48:45;;;;;;;8.60;1.90;;;;;;;;;;5036612;28;20235;-70
2023/10/18 10:51:36;;;;;;;3.73;1.80;;;;;;;;;;5035976;28;20189;-69
2023/10/18 10:54:06;;;;;;;4.40;1.97;;;;;;;;;;5036380;28;20240;-70
2023/10/18 10:56:34;;;;;;;6.50;1.73;;;;;;;;;;5036347;28;20264;-71
2023/10/18 11:01:57;;;;;;;5.10;1.43;;;;;;;;;;5036250;28;20178;-71
2023/10/18 11:04:46;;;;;;;5.57;1.70;;;;;;;;;;5036381;28;20184;-70
2023/10/18 11:07:14;;;;;;;4.57;1.93;;;;;;;;;;5036356;28;20177;-70
2023/10/18 11:09:43;;;;;;;5.50;1.70;;;;;;;;;;5036250;28;20173;-71
2023/10/18 11:12:12;;;;;;;5.23;1.83;;;;;;;;;;5036028;28;20177;-70
2023/10/18 11:14:41;;;;;;;4.60;2.00;;;;;;;;;;5034922;28;20185;-71
2023/10/18 11:19:59;;;;;;;5.47;1.90;;;;;;;;;;5036066;28;20265;-72
2023/10/18 11:22:33;;;;;;;5.00;1.80;;;;;;;;;;5036093;28;20169;-70
2023/10/18 11:25:01;;;;;;;7.27;1.80;;;;;;;;;;5035875;28;20243;-71
2023/10/18 11:27:34;;;;;;;4.93;1.80;;;;;;;;;;5035992;28;20220;-71
2023/10/18 11:32:41;;;;;;;4.63;1.77;;;;;;;;;;5035778;28;20308;-71
2023/10/18 11:35:16;;;;;;;4.87;1.77;;;;;;;;;;5034523;28;20196;-71
2023/10/18 11:37:47;;;;;;;5.50;1.90;;;;;;;;;;5035710;28;20180;-70
2023/10/18 11:40:16;;;;;;;5.77;1.80;;;;;;;;;;5023861;28;20547;-73
2023/10/18 20:37:26;;;;;;;2.00;1.30;;;;;;;;;;5010431;28;20229;-70
2023/10/18 20:39:56;;;;;;;4.20;1.80;;;;;;;;;;5013763;28;20602;-75
2023/10/18 20:42:24;;;;;;;10.03;1.60;;;;;;;;;;5014231;28;20244;-73
2023/10/18 20:44:55;;;;;;;7.10;1.77;;;;;;;;;;5013574;28;20550;-73
2023/10/18 20:47:27;;;;;;;9.43;1.77;;;;;;;;;;5013700;28;20197;-71
2023/10/18 20:49:55;;;;;;;4.63;1.77;;;;;;;;;;5013536;28;20186;-72
2023/10/18 20:52:26;;;;;;;4.80;1.63;;;;;;;;;;5012324;28;20292;-72
2023/10/18 20:54:54;;;;;;;4.57;1.30;;;;;;;;;;5013035;28;20194;-72
2023/10/18 20:57:21;;;;;;;5.93;1.50;;;;;;;;;;5013247;28;20193;-73
2023/10/18 20:59:49;;;;;;;7.23;1.70;;;;;;;;;;5011829;28;20652;-72
2023/10/18 21:02:22;;;;;;;3.43;1.37;;;;;;;;;;5012207;28;20662;-69
2023/10/18 21:04:50;;;;;;;5.63;1.30;;;;;;;;;;5012850;28;20617;-71
2023/10/18 21:07:23;;;;;;;6.90;1.57;;;;;;;;;;5013255;28;20204;-69
2023/10/18 21:09:54;;;;;;;7.50;1.60;;;;;;;;;;5013230;28;20206;-70
2023/10/18 21:12:21;;;;;;;6.93;1.77;;;;;;;;;;5012529;28;20174;-72
2023/10/18 21:14:48;;;;;;;8.60;1.50;;;;;;;;;;5011396;28;20582;-72
2023/10/18 21:17:16;;;;;;;6.47;1.57;;;;;;;;;;5012886;28;20604;-70
2023/10/18 21:19:43;;;;;;;10.40;2.53;;;;;;;;;;5012822;28;20228;-72
2023/10/18 21:22:11;;;;;;;14.73;2.87;;;;;;;;;;5012619;28;20190;-72
2023/10/18 21:24:39;;;;;;;9.67;2.97;;;;;;;;;;5012397;28;20197;-74
2023/10/18 21:27:07;;;;;;;7.60;1.80;;;;;;;;;;5012858;28;20534;-74
2023/10/18 21:29:34;;;;;;;7.00;2.20;;;;;;;;;;5012615;28;20174;-72
2023/10/18 21:32:01;;;;;;;6.40;1.50;;;;;;;;;;5012767;28;20189;-72
2023/10/18 21:34:28;;;;;;;6.37;1.40;;;;;;;;;;5012257;28;20218;-72
2023/10/18 21:36:56;;;;;;;14.60;2.27;;;;;;;;;;5012288;28;20311;-71
2023/10/18 21:39:25;;;;;;;9.37;1.87;;;;;;;;;;5012567;28;20186;-71
2023/10/18 21:41:53;;;;;;;6.80;1.80;;;;;;;;;;5012614;28;20229;-72
2023/10/18 21:47:25;;;;;;;12.77;2.50;;;;;;;;;;5011964;28;20208;-71
2023/10/18 21:49:52;;;;;;;9.50;2.10;;;;;;;;;;5012345;28;20193;-72
2023/10/18 21:52:20;;;;;;;7.03;1.67;;;;;;;;;;5012507;28;20182;-71
2023/10/18 21:54:47;;;;;;;2.33;1.20;;;;;;;;;;5012198;28;20210;-72
2023/10/18 21:57:16;;;;;;;10.00;1.70;;;;;;;;;;5012509;28;20244;-73
2023/10/18 21:59:43;;;;;;;8.03;1.40;;;;;;;;;;5012217;28;20240;-71
2023/10/18 22:02:12;;;;;;;7.37;1.87;;;;;;;;;;5011719;28;20190;-71
2023/10/18 22:04:43;;;;;;;3.17;1.30;;;;;;;;;;5011885;28;20233;-72
2023/10/18 22:07:14;;;;;;;2.60;1.20;;;;;;;;;;5012760;28;20678;-74
2023/10/18 22:09:55;;;;;;;3.10;1.13;;;;;;;;;;5011991;28;20687;-73
2023/10/18 22:12:26;;;;;;;7.97;1.40;;;;;;;;;;5012420;28;20256;-71
2023/10/18 22:14:57;;;;;;;2.23;1.03;;;;;;;;;;5012740;28;20228;-74
2023/10/18 22:17:31;;;;;;;5.73;1.63;;;;;;;;;;5015957;28;20236;-71
2023/10/18 22:19:59;;;;;;;6.13;1.97;;;;;;;;;;5016219;28;20185;-73
2023/10/18 22:22:29;;;;;;;6.67;1.20;;;;;;;;;;5016084;28;20184;-71
2023/10/18 22:24:57;;;;;;;6.13;1.53;;;;;;;;;;5015993;28;20186;-72
2023/10/18 22:27:25;;;;;;;5.23;1.17;;;;;;;;;;5016157;28;20544;-69
2023/10/18 22:29:56;;;;;;;3.73;1.60;;;;;;;;;;5015797;28;20193;-70
2023/10/18 22:32:28;;;;;;;4.93;1.60;;;;;;;;;;5015957;28;20177;-73
2023/10/18 22:34:59;;;;;;;8.57;1.50;;;;;;;;;;5015525;28;20197;-71
2023/10/18 22:37:26;;;;;;;8.80;1.60;;;;;;;;;;5015754;28;20225;-69
2023/10/18 22:40:04;;;;;;;5.53;1.33;;;;;;;;;;5015514;28;20678;-71
2023/10/18 22:42:38;;;;;;;6.00;1.50;;;;;;;;;;5015414;28;20193;-73
2023/10/18 22:45:24;;;;;;;5.87;1.27;;;;;;;;;;5015255;28;20182;-74
2023/10/18 22:47:51;;;;;;;5.70;1.17;;;;;;;;;;4999916;28;20190;-73
2023/10/18 22:52:54;;;;;;;6.70;1.30;;;;;;;;;;5015577;28;20205;-73
2023/10/18 22:55:27;;;;;;;4.63;1.10;;;;;;;;;;5015271;28;20193;-70
2023/10/18 22:57:55;;;;;;;5.97;1.20;;;;;;;;;;5015512;28;20182;-71
2023/10/18 23:00:31;;;;;;;5.57;1.20;;;;;;;;;;5015626;28;20178;-72
2023/10/18 23:03:01;;;;;;;7.00;1.13;;;;;;;;;;5013835;28;20606;-74
2023/10/18 23:05:29;;;;;;;3.77;0.80;;;;;;;;;;5006539;28;20283;-75
2023/10/18 23:08:00;;;;;;;4.53;1.00;;;;;;;;;;5015290;28;20170;-74
2023/10/18 23:11:02;;;;;;;6.27;1.10;;;;;;;;;;5014350;28;20271;-71
2023/10/18 23:13:36;;;;;;;3.10;0.90;;;;;;;;;;5012527;28;20567;-72
2023/10/18 23:16:09;;;;;;;5.27;1.00;;;;;;;;;;5014737;28;20750;-72
2023/10/18 23:18:37;;;;;;;4.57;1.20;;;;;;;;;;5015228;28;20214;-73
2023/10/18 23:23:38;;;;;;;3.40;0.60;;;;;;;;;;5015092;28;20252;-72
2023/10/18 23:28:53;;;;;;;3.33;1.13;;;;;;;;;;5015184;28;20245;-72
2023/10/18 23:31:43;;;;;;;6.80;1.10;;;;;;;;;;5014887;28;20182;-72
2023/10/18 23:37:11;;;;;;;4.47;1.00;;;;;;;;;;5014647;28;20283;-71
2023/10/18 23:39:43;;;;;;;8.83;1.17;;;;;;;;;;5014825;28;20173;-71
2023/10/18 23:55:40;;;;;;;4.83;1.10;;;;;;;;;;4995160;28;20632;-72
2023/10/18 23:58:14;;;;;;;8.03;1.20;;;;;;;;;;4995078;28;20193;-71
